createdAt,value
2018-06-12T00:00:14.447Z,3.65
2018-06-12T00:02:42.811Z,3.22
2018-06-12T00:05:11.501Z,3.37
2018-06-12T00:07:40.185Z,3.47
2018-06-12T00:10:08.812Z,4.05
2018-06-12T00:12:37.063Z,3.67
2018-06-12T00:15:05.315Z,4.30
2018-06-12T00:17:33.614Z,4.08
2018-06-12T00:20:01.916Z,3.45
2018-06-12T00:22:30.255Z,5.00
2018-06-12T00:24:58.523Z,4.00
2018-06-12T00:27:26.751Z,3.90
2018-06-12T00:29:55.303Z,3.52
2018-06-12T00:32:23.515Z,4.22
2018-06-12T00:34:52.031Z,3.75
2018-06-12T00:37:20.271Z,3.92
2018-06-12T00:39:48.487Z,3.42
2018-06-12T00:42:16.745Z,3.85
2018-06-12T00:44:44.951Z,3.33
2018-06-12T00:47:13.419Z,4.00
2018-06-12T00:49:41.702Z,3.98
2018-06-12T00:52:09.915Z,3.92
2018-06-12T00:54:38.247Z,3.90
2018-06-12T00:57:08.839Z,2.62
2018-06-12T00:59:37.255Z,4.22
2018-06-12T01:02:05.543Z,3.80
2018-06-12T01:04:33.819Z,3.42
2018-06-12T01:07:02.106Z,3.70
2018-06-12T01:09:30.361Z,4.10
2018-06-12T01:11:58.628Z,3.92
2018-06-12T01:14:26.916Z,3.72
2018-06-12T01:16:55.196Z,3.00
2018-06-12T01:19:23.463Z,3.20
2018-06-12T01:21:51.734Z,3.77
2018-06-12T01:24:20.020Z,3.65
2018-06-12T01:26:48.241Z,3.80
2018-06-12T01:29:16.595Z,3.83
2018-06-12T01:31:44.843Z,3.75
2018-06-12T01:34:14.552Z,3.02
2018-06-12T01:36:42.759Z,3.33
2018-06-12T01:39:10.977Z,3.25
2018-06-12T01:41:39.588Z,3.42
2018-06-12T01:44:07.803Z,2.47
2018-06-12T01:46:36.145Z,3.00
2018-06-12T01:49:04.419Z,3.40
2018-06-12T01:51:32.702Z,2.80
2018-06-12T01:54:00.986Z,2.95
2018-06-12T01:56:29.255Z,3.50
2018-06-12T01:58:57.467Z,3.00
2018-06-12T02:01:25.679Z,3.17
2018-06-12T02:03:53.888Z,3.15
2018-06-12T02:06:22.760Z,3.00
2018-06-12T02:08:51.038Z,3.20
2018-06-12T02:11:19.324Z,3.27
2018-06-12T02:13:47.531Z,2.85
2018-06-12T02:16:15.792Z,3.45
2018-06-12T02:18:44.482Z,4.20
2018-06-12T02:21:12.707Z,3.25
2018-06-12T02:23:41.117Z,3.25
2018-06-12T02:26:09.325Z,3.17
2018-06-12T02:28:37.663Z,3.10
2018-06-12T02:31:06.074Z,3.50
2018-06-12T02:33:34.651Z,2.80
2018-06-12T02:36:02.920Z,2.87
2018-06-12T02:38:31.199Z,2.75
2018-06-12T02:40:59.424Z,3.20
2018-06-12T02:43:27.731Z,3.05
2018-06-12T02:45:55.967Z,2.72
2018-06-12T02:48:24.211Z,2.90
2018-06-12T02:50:52.429Z,2.98
2018-06-12T02:53:20.840Z,2.83
2018-06-12T02:55:49.123Z,2.75
2018-06-12T02:58:17.337Z,2.65
2018-06-12T03:00:45.752Z,2.72
2018-06-12T03:03:13.960Z,2.92
2018-06-12T03:05:42.214Z,3.05
2018-06-12T03:08:10.422Z,2.85
2018-06-12T03:10:38.680Z,2.70
2018-06-12T03:13:07.051Z,2.33
2018-06-12T03:15:35.272Z,2.90
2018-06-12T03:18:03.595Z,3.55
2018-06-12T03:20:37.422Z,2.70
2018-06-12T03:23:05.884Z,2.33
2018-06-12T03:25:34.157Z,2.87
2018-06-12T03:28:03.035Z,2.67
2018-06-12T03:30:31.721Z,2.50
2018-06-12T03:32:59.931Z,2.98
2018-06-12T03:35:28.143Z,2.60
2018-06-12T03:37:56.671Z,2.40
2018-06-12T03:40:24.879Z,2.67
2018-06-12T03:42:53.183Z,3.00
2018-06-12T03:45:21.607Z,2.80
2018-06-12T03:47:49.911Z,2.60
2018-06-12T03:50:18.163Z,2.45
2018-06-12T03:52:46.485Z,2.40
2018-06-12T03:55:14.711Z,2.77
2018-06-12T03:57:43.019Z,2.77
2018-06-12T04:00:11.615Z,2.42
2018-06-12T04:02:39.843Z,2.25
2018-06-12T04:05:08.635Z,2.92
2018-06-12T04:07:36.953Z,3.00
2018-06-12T04:10:05.193Z,2.35
2018-06-12T04:12:33.467Z,2.35
2018-06-12T04:15:01.697Z,2.90
2018-06-12T04:17:30.174Z,2.95
2018-06-12T04:19:58.394Z,2.27
2018-06-12T04:22:26.647Z,2.60
2018-06-12T04:24:54.860Z,3.30
2018-06-12T04:27:23.127Z,2.70
2018-06-12T04:29:51.377Z,2.37
2018-06-12T04:32:19.682Z,3.00
2018-06-12T04:34:47.948Z,2.70
2018-06-12T04:37:16.639Z,3.33
2018-06-12T04:39:44.903Z,2.77
2018-06-12T04:42:13.202Z,2.55
2018-06-12T04:44:41.429Z,2.75
2018-06-12T04:47:09.751Z,2.83
2018-06-12T04:49:38.027Z,2.62
2018-06-12T04:52:06.326Z,2.42
2018-06-12T04:54:34.638Z,2.35
2018-06-12T04:57:02.899Z,2.72
2018-06-12T04:59:31.483Z,2.47
2018-06-12T05:01:59.817Z,2.27
2018-06-12T05:04:28.083Z,2.60
2018-06-12T05:06:56.367Z,2.58
2018-06-12T05:09:24.647Z,2.35
2018-06-12T05:11:52.929Z,2.30
2018-06-12T05:14:21.187Z,2.60
2018-06-12T05:16:49.480Z,2.50
2018-06-12T05:19:17.706Z,2.20
2018-06-12T05:21:46.047Z,1.85
2018-06-12T05:24:14.303Z,2.42
2018-06-12T05:26:43.835Z,2.52
2018-06-12T05:29:12.153Z,2.60
2018-06-12T05:31:40.363Z,2.12
2018-06-12T05:34:08.783Z,2.72
2018-06-12T05:36:37.323Z,3.00
2018-06-12T05:39:10.422Z,2.15
2018-06-12T05:41:39.199Z,2.20
2018-06-12T05:44:07.591Z,2.72
2018-06-12T05:46:35.851Z,2.40
2018-06-12T05:49:04.447Z,2.33
2018-06-12T05:51:32.655Z,2.20
2018-06-12T05:54:00.876Z,2.12
2018-06-12T05:56:29.159Z,2.30
2018-06-12T05:58:57.440Z,2.10
2018-06-12T06:01:25.735Z,2.27
2018-06-12T06:03:54.099Z,2.00
2018-06-12T06:06:22.382Z,2.10
2018-06-12T06:08:50.651Z,2.17
2018-06-12T06:11:18.933Z,2.22
2018-06-12T06:13:47.162Z,2.02
2018-06-12T06:16:15.409Z,2.20
2018-06-12T06:18:43.627Z,2.35
2018-06-12T06:21:12.060Z,2.25
2018-06-12T06:23:40.308Z,2.20
2018-06-12T06:26:08.611Z,2.33
2018-06-12T06:28:36.826Z,2.27
2018-06-12T06:31:05.159Z,2.27
2018-06-12T06:33:33.382Z,2.25
2018-06-12T06:36:01.692Z,2.08
2018-06-12T06:38:29.971Z,1.55
2018-06-12T06:40:58.193Z,2.55
2018-06-12T06:43:26.519Z,2.05
2018-06-12T06:45:54.799Z,2.25
2018-06-12T06:48:23.079Z,2.17
2018-06-12T06:50:51.303Z,2.33
2018-06-12T06:53:19.651Z,1.92
2018-06-12T06:55:47.900Z,2.27
2018-06-12T06:58:16.132Z,2.58
2018-06-12T07:00:44.448Z,2.33
2018-06-12T07:03:12.735Z,2.02
2018-06-12T07:05:41.019Z,2.30
2018-06-12T07:08:09.599Z,2.08
2018-06-12T07:10:38.024Z,1.67
2018-06-12T07:13:06.256Z,3.67
2018-06-12T07:15:34.524Z,2.15
2018-06-12T07:18:02.829Z,1.70
2018-06-12T07:20:36.399Z,1.67
2018-06-12T07:23:04.677Z,2.00
2018-06-12T07:25:32.895Z,1.92
2018-06-12T07:28:01.559Z,1.55
2018-06-12T07:30:29.946Z,1.60
2018-06-12T07:32:58.192Z,2.12
2018-06-12T07:35:26.475Z,1.80
2018-06-12T07:37:54.746Z,1.60
2018-06-12T07:40:23.019Z,1.65
2018-06-12T07:42:51.272Z,1.62
2018-06-12T07:45:19.915Z,1.62
2018-06-12T07:47:48.681Z,1.60
2018-06-12T07:50:16.947Z,1.52
2018-06-12T07:52:45.179Z,1.52
2018-06-12T07:55:13.404Z,1.70
2018-06-12T07:57:41.631Z,1.40
2018-06-12T08:00:10.016Z,3.70
2018-06-12T08:02:38.267Z,2.70
2018-06-12T08:05:06.499Z,2.10
2018-06-12T08:07:34.785Z,2.20
2018-06-12T08:10:03.030Z,2.05
2018-06-12T08:12:31.799Z,1.70
2018-06-12T08:15:00.532Z,1.57
2018-06-12T08:17:28.804Z,1.60
2018-06-12T08:19:57.098Z,1.80
2018-06-12T08:22:26.239Z,1.70
2018-06-12T08:24:54.876Z,1.60
2018-06-12T08:27:23.555Z,1.40
2018-06-12T08:29:51.905Z,1.95
2018-06-12T08:32:20.452Z,1.82
2018-06-12T08:34:48.715Z,1.75
2018-06-12T08:37:17.466Z,1.15
2018-06-12T08:39:45.771Z,1.55
2018-06-12T08:42:14.281Z,2.00
2018-06-12T08:44:42.551Z,1.50
2018-06-12T08:47:10.995Z,1.90
2018-06-12T08:49:39.277Z,1.70
2018-06-12T08:52:07.555Z,0.95
2018-06-12T08:54:35.953Z,1.35
2018-06-12T08:57:04.206Z,1.72
2018-06-12T08:59:32.867Z,1.35
2018-06-12T09:02:01.483Z,1.57
2018-06-12T09:04:29.739Z,1.30
2018-06-12T09:06:58.028Z,1.35
2018-06-12T09:09:26.716Z,1.30
2018-06-12T09:11:55.498Z,1.60
2018-06-12T09:14:24.289Z,1.40
2018-06-12T09:16:52.547Z,1.00
2018-06-12T09:19:21.051Z,1.98
2018-06-12T09:21:49.308Z,1.10
2018-06-12T09:24:17.579Z,1.12
2018-06-12T09:26:45.864Z,1.20
2018-06-12T09:29:14.118Z,1.47
2018-06-12T09:31:42.756Z,1.05
2018-06-12T09:34:11.527Z,1.20
2018-06-12T09:36:39.809Z,1.32
2018-06-12T09:39:09.304Z,1.20
2018-06-12T09:41:38.005Z,1.37
2018-06-12T09:44:06.307Z,1.47
2018-06-12T09:46:34.557Z,1.07
2018-06-12T09:49:03.463Z,1.35
2018-06-12T09:51:31.993Z,0.90
2018-06-12T09:54:00.507Z,1.50
2018-06-12T09:56:28.931Z,1.20
2018-06-12T09:58:57.455Z,0.88
2018-06-12T10:01:25.855Z,1.00
2018-06-12T10:03:54.118Z,1.17
2018-06-12T10:06:22.798Z,1.00
2018-06-12T10:08:51.422Z,0.90
2018-06-12T10:11:20.061Z,1.37
2018-06-12T10:13:48.437Z,1.20
2018-06-12T10:16:16.688Z,1.10
2018-06-12T10:18:44.986Z,0.88
2018-06-12T10:21:13.619Z,1.72
2018-06-12T10:23:41.969Z,1.15
2018-06-12T10:26:10.227Z,1.20
2018-06-12T10:28:38.480Z,1.12
2018-06-12T10:31:06.784Z,0.90
2018-06-12T10:33:35.039Z,1.10
2018-06-12T10:36:03.341Z,1.00
2018-06-12T10:38:31.928Z,1.17
2018-06-12T10:41:03.855Z,2.27
2018-06-12T10:43:32.114Z,1.10
2018-06-12T10:46:00.569Z,1.20
2018-06-12T10:48:28.832Z,0.88
2018-06-12T10:50:57.088Z,0.95
2018-06-12T10:53:25.388Z,1.10
2018-06-12T10:55:53.986Z,0.82
2018-06-12T10:58:22.660Z,1.00
2018-06-12T11:00:51.035Z,0.88
2018-06-12T11:03:19.741Z,0.98
2018-06-12T11:05:47.992Z,1.07
2018-06-12T11:08:16.465Z,0.90
2018-06-12T11:10:44.779Z,1.05
2018-06-12T11:13:13.220Z,1.00
2018-06-12T11:15:41.832Z,1.20
2018-06-12T11:18:10.191Z,1.05
2018-06-12T11:20:38.453Z,0.75
2018-06-12T11:23:07.113Z,0.80
2018-06-12T11:25:35.433Z,0.85
2018-06-12T11:28:04.035Z,0.80
2018-06-12T11:30:32.400Z,0.82
2018-06-12T11:33:00.674Z,1.30
2018-06-12T11:35:29.017Z,0.90
2018-06-12T11:37:57.247Z,0.80
2018-06-12T11:40:25.911Z,0.98
2018-06-12T11:42:54.588Z,0.85
2018-06-12T11:45:22.863Z,0.88
2018-06-12T11:47:51.096Z,0.90
2018-06-12T11:50:19.418Z,0.70
2018-06-12T11:52:47.653Z,0.70
2018-06-12T11:55:15.880Z,0.70
2018-06-12T11:57:44.579Z,1.15
2018-06-12T12:00:13.344Z,1.00
2018-06-12T12:02:41.608Z,0.80
2018-06-12T12:05:09.894Z,0.70
2018-06-12T12:07:38.126Z,0.87
2018-06-12T12:10:06.392Z,0.90
2018-06-12T12:12:34.645Z,0.93
2018-06-12T12:15:02.961Z,1.03
2018-06-12T12:17:31.310Z,0.82
2018-06-12T12:19:59.547Z,0.90
2018-06-12T12:22:27.779Z,1.05
2018-06-12T12:24:56.166Z,0.78
2018-06-12T12:27:24.399Z,0.95
2018-06-12T12:29:52.658Z,0.80
2018-06-12T12:32:21.269Z,1.10
2018-06-12T12:34:49.619Z,1.07
2018-06-12T12:37:17.847Z,0.85
2018-06-12T12:39:46.144Z,0.90
2018-06-12T12:42:14.364Z,0.90
2018-06-12T12:44:42.604Z,1.03
2018-06-12T12:47:10.847Z,0.95
2018-06-12T12:49:39.621Z,1.02
2018-06-12T12:52:07.897Z,0.70
2018-06-12T12:54:36.275Z,0.97
2018-06-12T12:57:04.539Z,0.60
2018-06-12T12:59:32.791Z,0.50
2018-06-12T13:02:01.420Z,0.87
2018-06-12T13:04:29.692Z,0.77
2018-06-12T13:06:57.971Z,0.90
2018-06-12T13:09:26.340Z,0.70
2018-06-12T13:11:54.603Z,0.77
2018-06-12T13:14:23.198Z,0.60
2018-06-12T13:16:51.463Z,0.70
2018-06-12T13:19:19.737Z,0.73
2018-06-12T13:21:48.000Z,0.80
2018-06-12T13:24:16.393Z,0.70
2018-06-12T13:26:44.708Z,1.00
2018-06-12T13:29:12.968Z,0.70
2018-06-12T13:31:41.540Z,0.90
2018-06-12T13:34:09.799Z,0.80
2018-06-12T13:36:38.303Z,0.73
2018-06-12T13:39:06.555Z,0.90
2018-06-12T13:41:34.831Z,0.50
2018-06-12T13:44:03.467Z,0.90
2018-06-12T13:46:31.772Z,1.20
2018-06-12T13:49:00.416Z,0.80
2018-06-12T13:51:29.103Z,0.70
2018-06-12T13:53:57.363Z,1.03
2018-06-12T13:56:25.636Z,0.77
2018-06-12T13:58:53.955Z,1.00
2018-06-12T14:01:22.209Z,0.80
2018-06-12T14:03:50.684Z,0.70
2018-06-12T14:06:18.911Z,0.60
2018-06-12T14:08:47.400Z,0.63
2018-06-12T14:11:15.620Z,0.83
2018-06-12T14:13:43.953Z,0.70
2018-06-12T14:16:12.564Z,0.70
2018-06-12T14:18:41.332Z,0.80
2018-06-12T14:21:09.563Z,0.73
2018-06-12T14:23:37.887Z,0.80
2018-06-12T14:26:06.462Z,0.67
2018-06-12T14:28:34.688Z,0.70
2018-06-12T14:31:03.116Z,0.70
2018-06-12T14:33:31.727Z,0.80
2018-06-12T14:35:59.952Z,0.83
2018-06-12T14:38:28.351Z,0.90
2018-06-12T14:40:56.628Z,0.70
2018-06-12T14:43:24.852Z,0.77
2018-06-12T14:45:53.182Z,0.80
2018-06-12T14:48:21.403Z,0.80
2018-06-12T14:50:49.655Z,0.90
2018-06-12T14:53:17.871Z,0.63
2018-06-12T14:55:46.290Z,0.80
2018-06-12T14:58:14.991Z,1.00
2018-06-12T15:00:43.668Z,1.00
2018-06-12T15:03:11.945Z,0.80
2018-06-12T15:05:40.212Z,1.07
2018-06-12T15:08:08.488Z,0.80
2018-06-12T15:10:36.711Z,0.70
2018-06-12T15:13:04.946Z,0.90
2018-06-12T15:15:33.180Z,2.37
2018-06-12T15:18:01.621Z,1.15
2018-06-12T15:20:29.849Z,1.45
2018-06-12T15:22:58.483Z,0.70
2018-06-12T15:25:26.752Z,1.10
2018-06-12T15:27:55.116Z,1.10
2018-06-12T15:30:23.805Z,0.90
2018-06-12T15:32:52.039Z,1.10
2018-06-12T15:35:20.398Z,1.25
2018-06-12T15:37:48.624Z,0.80
2018-06-12T15:40:16.963Z,0.90
2018-06-12T15:42:45.184Z,1.20
2018-06-12T15:45:13.452Z,1.60
2018-06-12T15:47:41.737Z,0.90
2018-06-12T15:50:09.987Z,0.95
2018-06-12T15:52:38.211Z,1.00
2018-06-12T15:55:06.560Z,1.02
2018-06-12T15:57:34.966Z,1.00
2018-06-12T16:00:03.256Z,1.20
2018-06-12T16:02:31.805Z,1.80
2018-06-12T16:05:00.085Z,1.10
2018-06-12T16:07:28.316Z,1.05
2018-06-12T16:09:56.650Z,1.02
2018-06-12T16:12:25.312Z,1.10
2018-06-12T16:14:53.589Z,0.90
2018-06-12T16:17:21.892Z,1.15
2018-06-12T16:19:50.192Z,0.90
2018-06-12T16:22:18.431Z,0.80
2018-06-12T16:24:46.955Z,1.00
2018-06-12T16:27:15.386Z,1.15
2018-06-12T16:29:43.665Z,1.02
2018-06-12T16:32:11.919Z,1.00
2018-06-12T16:34:40.172Z,0.90
2018-06-12T16:37:08.460Z,1.15
2018-06-12T16:39:36.770Z,1.07
2018-06-12T16:42:05.045Z,1.20
2018-06-12T16:44:33.323Z,1.20
2018-06-12T16:47:01.624Z,1.42
2018-06-12T16:49:29.872Z,1.05
2018-06-12T16:51:58.100Z,0.82
2018-06-12T16:54:26.962Z,1.07
2018-06-12T16:56:55.516Z,1.10
2018-06-12T16:59:23.815Z,1.20
2018-06-12T17:01:52.067Z,1.32
2018-06-12T17:04:20.301Z,1.10
2018-06-12T17:06:48.672Z,0.90
2018-06-12T17:09:16.900Z,1.22
2018-06-12T17:11:45.230Z,1.02
2018-06-12T17:14:13.450Z,1.00
2018-06-12T17:16:41.736Z,0.90
2018-06-12T17:19:10.452Z,1.00
2018-06-12T17:21:39.440Z,0.95
2018-06-12T17:24:07.684Z,1.10
2018-06-12T17:26:36.478Z,1.27
2018-06-12T17:29:04.832Z,1.05
2018-06-12T17:31:33.063Z,0.80
2018-06-12T17:34:01.723Z,0.70
2018-06-12T17:36:30.384Z,1.42
2018-06-12T17:38:59.027Z,1.00
2018-06-12T17:41:27.363Z,0.80
2018-06-12T17:43:55.632Z,1.30
2018-06-12T17:46:24.659Z,1.05
2018-06-12T17:48:52.919Z,1.00
2018-06-12T17:51:21.289Z,0.85
2018-06-12T17:53:49.560Z,0.93
2018-06-12T17:56:18.176Z,0.90
2018-06-12T17:58:46.535Z,0.90
2018-06-12T18:01:14.812Z,1.20
2018-06-12T18:03:43.041Z,0.95
2018-06-12T18:06:11.272Z,0.90
2018-06-12T18:08:39.498Z,0.72
2018-06-12T18:11:07.910Z,1.27
2018-06-12T18:13:41.977Z,1.25
2018-06-12T18:16:10.212Z,0.78
2018-06-12T18:18:38.468Z,1.00
2018-06-12T18:21:07.236Z,0.93
2018-06-12T18:23:35.744Z,0.90
2018-06-12T18:26:03.988Z,1.40
2018-06-12T18:28:32.394Z,1.20
2018-06-12T18:31:01.042Z,0.70
2018-06-12T18:33:29.370Z,1.30
2018-06-12T18:35:57.628Z,1.00
2018-06-12T18:38:25.876Z,0.98
2018-06-12T18:40:54.102Z,1.20
2018-06-12T18:43:22.489Z,1.05
2018-06-12T18:45:50.726Z,0.90
2018-06-12T18:48:19.019Z,1.00
2018-06-12T18:50:47.290Z,1.25
2018-06-12T18:53:15.629Z,1.00
2018-06-12T18:55:43.852Z,0.98
2018-06-12T18:58:12.123Z,1.10
2018-06-12T19:00:40.813Z,0.88
2018-06-12T19:03:09.059Z,1.30
2018-06-12T19:05:37.701Z,1.02
2018-06-12T19:08:06.369Z,1.22
2018-06-12T19:10:34.604Z,1.00
2018-06-12T19:13:02.886Z,1.05
2018-06-12T19:15:31.288Z,1.10
2018-06-12T19:17:59.560Z,0.75
2018-06-12T19:20:27.831Z,0.90
2018-06-12T19:22:56.328Z,1.25
2018-06-12T19:25:24.800Z,0.90
2018-06-12T19:27:53.028Z,1.05
2018-06-12T19:30:21.256Z,1.57
2018-06-12T19:32:49.629Z,0.90
2018-06-12T19:35:17.904Z,1.00
2018-06-12T19:37:46.128Z,0.90
2018-06-12T19:40:14.424Z,0.93
2018-06-12T19:42:42.643Z,0.80
2018-06-12T19:45:11.015Z,0.90
2018-06-12T19:47:39.262Z,1.00
2018-06-12T19:50:07.572Z,0.80
2018-06-12T19:52:35.807Z,1.00
2018-06-12T19:55:04.172Z,1.22
2018-06-12T19:57:32.361Z,0.90
2018-06-12T20:00:00.659Z,1.17
2018-06-12T20:02:28.944Z,0.82
2018-06-12T20:04:57.253Z,1.05
2018-06-12T20:07:25.504Z,1.00
2018-06-12T20:09:53.772Z,1.00
2018-06-12T20:12:22.124Z,0.82
2018-06-12T20:14:50.360Z,1.50
2018-06-12T20:17:18.600Z,0.80
2018-06-12T20:19:46.904Z,1.00
2018-06-12T20:22:15.499Z,0.85
2018-06-12T20:24:43.726Z,1.20
2018-06-12T20:27:11.944Z,1.15
2018-06-12T20:29:40.395Z,1.20
2018-06-12T20:32:08.684Z,1.20
2018-06-12T20:34:36.952Z,1.00
2018-06-12T20:37:05.224Z,1.20
2018-06-12T20:39:33.504Z,1.35
2018-06-12T20:42:01.776Z,2.12
2018-06-12T20:44:30.148Z,1.30
2018-06-12T20:46:58.748Z,1.12
2018-06-12T20:49:27.016Z,1.02
2018-06-12T20:51:55.248Z,1.50
2018-06-12T20:54:23.568Z,1.40
2018-06-12T20:56:51.832Z,0.90
2018-06-12T20:59:20.063Z,1.60
2018-06-12T21:01:48.504Z,1.35
2018-06-12T21:04:17.080Z,2.02
2018-06-12T21:06:45.372Z,2.02
2018-06-12T21:09:14.051Z,1.85
2018-06-12T21:11:42.752Z,1.55
2018-06-12T21:14:11.108Z,1.80
2018-06-12T21:16:39.388Z,1.70
2018-06-12T21:19:07.975Z,1.60
2018-06-12T21:21:36.203Z,1.70
2018-06-12T21:24:04.520Z,2.05
2018-06-12T21:26:32.808Z,1.22
2018-06-12T21:29:01.062Z,1.57
2018-06-12T21:31:29.391Z,1.55
2018-06-12T21:33:57.686Z,2.22
2018-06-12T21:36:26.333Z,1.45
2018-06-12T21:38:55.000Z,1.80
2018-06-12T21:41:23.267Z,2.60
2018-06-12T21:43:51.548Z,2.00
2018-06-12T21:46:19.778Z,1.72
2018-06-12T21:48:48.111Z,2.05
2018-06-12T21:51:16.398Z,1.85
2018-06-12T21:53:44.615Z,1.75
2018-06-12T21:56:12.995Z,1.50
2018-06-12T21:58:41.252Z,1.85
2018-06-12T22:01:09.589Z,2.00
2018-06-12T22:03:37.857Z,2.00
2018-06-12T22:06:06.816Z,2.80
2018-06-12T22:08:35.168Z,1.98
2018-06-12T22:11:03.408Z,1.70
2018-06-12T22:13:31.688Z,2.50
2018-06-12T22:15:59.978Z,1.65
2018-06-12T22:18:28.243Z,5.83
2018-06-12T22:20:56.946Z,10.40
2018-06-12T22:23:25.180Z,6.00
2018-06-12T22:25:53.401Z,5.50
2018-06-12T22:28:21.624Z,2.90
2018-06-12T22:30:49.904Z,2.25
2018-06-12T22:33:18.303Z,1.80
2018-06-12T22:35:46.553Z,1.45
2018-06-12T22:38:14.865Z,1.90
2018-06-12T22:40:43.127Z,1.52
2018-06-12T22:43:11.413Z,1.42
2018-06-12T22:45:39.753Z,1.40
2018-06-12T22:48:07.992Z,1.95
2018-06-12T22:50:36.215Z,1.70
2018-06-12T22:53:04.448Z,1.55
2018-06-12T22:55:32.814Z,1.15
2018-06-12T22:58:01.048Z,1.40
2018-06-12T23:00:29.356Z,2.10
2018-06-12T23:02:57.589Z,1.77
2018-06-12T23:05:25.960Z,4.25
2018-06-12T23:07:54.200Z,8.88
2018-06-12T23:10:22.603Z,5.85
2018-06-12T23:12:50.869Z,3.60
2018-06-12T23:15:19.354Z,2.20
2018-06-12T23:17:47.696Z,2.20
2018-06-12T23:20:21.700Z,1.98
2018-06-12T23:22:50.330Z,2.10
2018-06-12T23:25:18.560Z,1.80
2018-06-12T23:27:46.792Z,1.45
2018-06-12T23:30:15.221Z,1.77
2018-06-12T23:32:43.504Z,1.80
2018-06-12T23:35:11.782Z,2.15
2018-06-12T23:37:40.048Z,3.02
2018-06-12T23:40:08.442Z,1.75
2018-06-12T23:42:36.718Z,1.82
2018-06-12T23:45:04.971Z,2.20
2018-06-12T23:47:33.212Z,1.60
2018-06-12T23:50:01.474Z,1.60
2018-06-12T23:52:29.897Z,1.70
2018-06-12T23:54:58.392Z,1.10
2018-06-12T23:57:26.674Z,1.50
2018-06-12T23:59:54.940Z,1.22
